Time;durP1;ratioP1;P1;durP2;ratioP2;P2;SDS_P1;SDS_P2;PMS_P1;PMS_P2;Temp;Humidity;BMP_temperature;BMP_pressure;BME280_temperature;BME280_humidity;BME280_pressure;Samples;Min_cycle;Max_cycle;Signal;HPM_P1;HPM_P2
2022/06/09 00:00:41;;;;;;;;;;;23.70;50.20;;;;;;457844;259;2206;-76
2022/06/09 00:02:42;;;;;;;;;;;23.60;50.30;;;;;;457775;259;1175;-76
2022/06/09 00:04:44;;;;;;;;;;;23.60;50.30;;;;;;457696;259;1353;-76
2022/06/09 00:06:46;;;;;;;;;;;23.70;50.10;;;;;;457570;259;1320;-76
2022/06/09 00:08:46;;;;;;;;;;;23.70;49.90;;;;;;457898;259;1323;-76
2022/06/09 00:10:48;;;;;;;;;;;23.70;49.90;;;;;;457787;259;1272;-76
2022/06/09 00:12:49;;;;;;;;;;;23.70;49.90;;;;;;457692;259;1214;-76
2022/06/09 00:14:50;;;;;;;;;;;23.70;49.90;;;;;;457714;259;1137;-76
2022/06/09 00:16:52;;;;;;;;;;;23.70;50.10;;;;;;457721;259;1225;-76
2022/06/09 00:18:53;;;;;;;;;;;23.70;50.00;;;;;;457594;259;1117;-76
2022/06/09 00:20:54;;;;;;;;;;;23.70;49.90;;;;;;457606;259;2166;-76
2022/06/09 00:22:56;;;;;;;;;;;23.90;49.60;;;;;;457627;259;1165;-76
2022/06/09 00:24:57;;;;;;;;;;;24.00;49.40;;;;;;457599;259;1002;-76
2022/06/09 00:26:58;;;;;;;;;;;24.10;49.00;;;;;;457749;259;1161;-76
2022/06/09 00:29:00;;;;;;;;;;;24.00;49.20;;;;;;457705;259;1089;-76
2022/06/09 00:31:01;;;;;;;;;;;24.00;49.20;;;;;;457613;259;1030;-76
2022/06/09 00:33:02;;;;;;;;;;;24.00;49.20;;;;;;457789;259;1161;-76
2022/06/09 00:35:04;;;;;;;;;;;24.10;49.10;;;;;;457576;259;1177;-76
2022/06/09 00:37:05;;;;;;;;;;;24.10;48.80;;;;;;457659;259;1201;-76
2022/06/09 00:39:06;;;;;;;;;;;24.10;48.80;;;;;;457664;259;1137;-76
2022/06/09 00:41:08;;;;;;;;;;;24.10;48.90;;;;;;457649;259;2202;-76
2022/06/09 00:43:09;;;;;;;;;;;24.10;49.00;;;;;;457784;259;1194;-76
2022/06/09 00:45:10;;;;;;;;;;;24.20;48.90;;;;;;457876;259;1100;-76
2022/06/09 00:47:12;;;;;;;;;;;24.20;48.70;;;;;;457638;259;1265;-76
2022/06/09 00:49:13;;;;;;;;;;;24.20;48.70;;;;;;457765;259;1136;-76
2022/06/09 00:51:14;;;;;;;;;;;24.20;48.70;;;;;;457658;259;1330;-75
2022/06/09 00:53:16;;;;;;;;;;;24.30;48.70;;;;;;457607;259;1265;-76
2022/06/09 00:55:17;;;;;;;;;;;24.30;48.60;;;;;;457672;259;1154;-76
2022/06/09 00:57:18;;;;;;;;;;;24.20;48.60;;;;;;457678;259;1193;-76
2022/06/09 00:59:20;;;;;;;;;;;24.30;48.60;;;;;;457698;260;1176;-76
2022/06/09 01:01:21;;;;;;;;;;;24.30;48.50;;;;;;457619;260;2139;-76
2022/06/09 01:03:22;;;;;;;;;;;24.20;48.50;;;;;;457863;259;1237;-76
2022/06/09 01:05:24;;;;;;;;;;;24.20;48.60;;;;;;457533;259;1154;-76
2022/06/09 01:07:25;;;;;;;;;;;24.30;48.60;;;;;;457645;259;1238;-76
2022/06/09 01:09:26;;;;;;;;;;;24.20;48.70;;;;;;457625;259;1163;-75
2022/06/09 01:11:28;;;;;;;;;;;24.20;48.70;;;;;;457607;259;1118;-76
2022/06/09 01:13:29;;;;;;;;;;;24.20;48.60;;;;;;457671;259;1169;-76
2022/06/09 01:15:30;;;;;;;;;;;24.30;48.60;;;;;;457696;259;1132;-76
2022/06/09 01:17:32;;;;;;;;;;;24.10;48.80;;;;;;457611;259;1164;-76
2022/06/09 01:19:33;;;;;;;;;;;24.10;49.00;;;;;;457739;259;1106;-76
2022/06/09 01:21:34;;;;;;;;;;;24.10;48.70;;;;;;457718;259;2206;-76
2022/06/09 01:23:36;;;;;;;;;;;24.20;48.70;;;;;;457729;259;1289;-76
2022/06/09 01:25:37;;;;;;;;;;;24.30;48.40;;;;;;457682;259;1105;-76
2022/06/09 01:27:38;;;;;;;;;;;24.40;48.30;;;;;;457640;259;1089;-76
2022/06/09 01:29:40;;;;;;;;;;;24.40;48.30;;;;;;457594;259;1166;-76
2022/06/09 01:31:41;;;;;;;;;;;24.40;48.20;;;;;;457531;259;1042;-76
2022/06/09 01:33:42;;;;;;;;;;;24.40;48.20;;;;;;457602;259;985;-76
2022/06/09 01:35:44;;;;;;;;;;;24.40;48.20;;;;;;457602;259;1460;-76
2022/06/09 01:37:45;;;;;;;;;;;24.40;48.30;;;;;;457503;259;1105;-76
2022/06/09 01:39:46;;;;;;;;;;;24.30;48.50;;;;;;457583;259;999;-76
2022/06/09 01:41:48;;;;;;;;;;;24.20;48.60;;;;;;457574;259;2270;-76
2022/06/09 01:43:49;;;;;;;;;;;24.20;48.80;;;;;;457555;259;998;-76
2022/06/09 01:45:51;;;;;;;;;;;24.20;48.70;;;;;;457648;259;978;-76
2022/06/09 01:47:52;;;;;;;;;;;24.30;48.50;;;;;;457675;259;1047;-76
2022/06/09 01:49:54;;;;;;;;;;;24.30;48.50;;;;;;457662;259;1086;-76
2022/06/09 01:51:55;;;;;;;;;;;24.30;48.40;;;;;;457597;259;1236;-76
2022/06/09 01:53:56;;;;;;;;;;;24.30;48.60;;;;;;457652;259;1140;-76
2022/06/09 01:55:58;;;;;;;;;;;24.30;48.60;;;;;;457662;260;1185;-76
2022/06/09 01:57:59;;;;;;;;;;;24.20;48.70;;;;;;457662;259;1052;-76
2022/06/09 02:00:00;;;;;;;;;;;24.30;48.60;;;;;;457609;259;2222;-76
2022/06/09 02:02:02;;;;;;;;;;;24.30;48.40;;;;;;457637;259;1246;-76
2022/06/09 02:04:03;;;;;;;;;;;24.40;48.30;;;;;;457614;260;1081;-76
2022/06/09 02:06:05;;;;;;;;;;;24.30;48.50;;;;;;457578;259;1171;-76
2022/06/09 02:08:06;;;;;;;;;;;24.30;48.70;;;;;;457705;259;1060;-76
2022/06/09 02:10:07;;;;;;;;;;;24.40;48.50;;;;;;457655;259;1102;-76
2022/06/09 02:12:09;;;;;;;;;;;24.40;48.20;;;;;;457563;259;1177;-76
2022/06/09 02:14:11;;;;;;;;;;;24.30;48.50;;;;;;457637;259;1034;-76
2022/06/09 02:16:12;;;;;;;;;;;24.10;48.70;;;;;;457633;256;1181;-76
2022/06/09 02:18:14;;;;;;;;;;;24.10;48.60;;;;;;457881;259;1121;-76
2022/06/09 02:20:15;;;;;;;;;;;24.10;48.70;;;;;;457655;259;2221;-76
2022/06/09 02:22:16;;;;;;;;;;;24.00;48.80;;;;;;457696;259;1338;-76
2022/06/09 02:24:18;;;;;;;;;;;24.10;48.80;;;;;;457594;259;1065;-76
2022/06/09 02:26:19;;;;;;;;;;;24.10;48.60;;;;;;457557;259;1292;-76
2022/06/09 02:28:20;;;;;;;;;;;24.10;48.60;;;;;;457556;259;1167;-76
2022/06/09 02:30:22;;;;;;;;;;;23.90;49.00;;;;;;457749;259;1247;-76
2022/06/09 02:32:23;;;;;;;;;;;23.90;49.10;;;;;;457604;259;1262;-76
2022/06/09 02:34:24;;;;;;;;;;;24.00;49.10;;;;;;457630;259;1123;-76
2022/06/09 02:36:26;;;;;;;;;;;24.10;48.60;;;;;;457579;259;1134;-76
2022/06/09 02:38:27;;;;;;;;;;;24.10;48.60;;;;;;457612;259;1138;-76
2022/06/09 02:40:29;;;;;;;;;;;24.00;48.70;;;;;;457654;259;2135;-76
2022/06/09 02:42:30;;;;;;;;;;;23.90;49.00;;;;;;457546;259;1330;-76
2022/06/09 02:44:31;;;;;;;;;;;23.90;49.00;;;;;;457815;259;1191;-76
2022/06/09 02:46:33;;;;;;;;;;;24.00;48.70;;;;;;457826;260;1186;-76
2022/06/09 02:48:34;;;;;;;;;;;23.90;48.80;;;;;;457483;259;1264;-76
2022/06/09 02:50:35;;;;;;;;;;;24.00;48.80;;;;;;457760;259;1067;-76
2022/06/09 02:52:37;;;;;;;;;;;24.00;48.70;;;;;;457612;259;1213;-76
2022/06/09 02:54:38;;;;;;;;;;;23.90;48.90;;;;;;457661;259;1191;-76
2022/06/09 02:56:39;;;;;;;;;;;23.90;48.90;;;;;;457578;256;1198;-76
2022/06/09 02:58:41;;;;;;;;;;;23.80;49.10;;;;;;457665;259;1069;-76
2022/06/09 03:00:43;;;;;;;;;;;23.80;49.10;;;;;;457778;259;2206;-76
2022/06/09 03:02:44;;;;;;;;;;;23.80;48.90;;;;;;457508;260;1169;-76
2022/06/09 03:04:45;;;;;;;;;;;23.90;48.60;;;;;;457872;259;1120;-76
2022/06/09 03:06:47;;;;;;;;;;;23.90;48.70;;;;;;457709;259;1135;-76
2022/06/09 03:08:48;;;;;;;;;;;23.80;48.60;;;;;;457795;259;1226;-76
2022/06/09 03:10:49;;;;;;;;;;;23.80;48.80;;;;;;457598;259;1195;-76
2022/06/09 03:12:51;;;;;;;;;;;23.70;48.80;;;;;;457572;259;1080;-76
2022/06/09 03:14:53;;;;;;;;;;;23.80;48.70;;;;;;457552;259;1133;-76
2022/06/09 03:16:54;;;;;;;;;;;23.70;48.80;;;;;;457611;259;1475;-76
2022/06/09 03:18:55;;;;;;;;;;;23.60;48.90;;;;;;457644;259;1220;-76
2022/06/09 03:20:56;;;;;;;;;;;23.60;49.00;;;;;;457591;259;2202;-76
2022/06/09 03:22:58;;;;;;;;;;;23.50;49.10;;;;;;457638;259;1342;-76
2022/06/09 03:24:59;;;;;;;;;;;23.60;49.00;;;;;;457632;259;1124;-76
2022/06/09 03:27:00;;;;;;;;;;;23.60;48.90;;;;;;457725;260;1171;-76
2022/06/09 03:29:02;;;;;;;;;;;23.50;49.10;;;;;;457787;259;1103;-76
2022/06/09 03:31:03;;;;;;;;;;;23.50;49.30;;;;;;457684;259;1243;-76
2022/06/09 03:33:04;;;;;;;;;;;23.60;49.10;;;;;;457716;259;1240;-76
2022/06/09 03:35:06;;;;;;;;;;;23.60;48.90;;;;;;457812;259;1080;-76
2022/06/09 03:37:07;;;;;;;;;;;23.60;48.80;;;;;;457540;259;1222;-76
2022/06/09 03:39:08;;;;;;;;;;;23.60;48.90;;;;;;457746;259;1140;-76
2022/06/09 03:41:10;;;;;;;;;;;23.60;49.00;;;;;;457772;259;2143;-76
2022/06/09 03:43:11;;;;;;;;;;;23.50;49.00;;;;;;457650;259;1124;-75
2022/06/09 03:45:12;;;;;;;;;;;23.40;49.10;;;;;;457619;259;1144;-75
2022/06/09 03:47:14;;;;;;;;;;;23.50;49.10;;;;;;457598;255;1494;-76
2022/06/09 03:49:15;;;;;;;;;;;23.50;49.00;;;;;;457617;259;1114;-76
2022/06/09 03:51:16;;;;;;;;;;;23.50;48.90;;;;;;457840;260;1067;-76
2022/06/09 03:53:18;;;;;;;;;;;23.50;48.90;;;;;;457856;259;1278;-75
2022/06/09 03:55:19;;;;;;;;;;;23.60;48.90;;;;;;457640;259;1102;-76
2022/06/09 03:57:20;;;;;;;;;;;23.50;48.80;;;;;;457666;259;1528;-76
2022/06/09 03:59:22;;;;;;;;;;;23.50;49.00;;;;;;457592;259;1116;-76
2022/06/09 04:01:23;;;;;;;;;;;23.50;49.10;;;;;;457555;259;2206;-76
2022/06/09 04:03:24;;;;;;;;;;;23.50;49.00;;;;;;457612;259;1286;-76
2022/06/09 04:05:26;;;;;;;;;;;23.50;48.90;;;;;;457675;259;1230;-76
2022/06/09 04:07:27;;;;;;;;;;;23.50;49.00;;;;;;457639;259;1317;-76
2022/06/09 04:09:28;;;;;;;;;;;23.40;49.00;;;;;;457785;259;1342;-76
2022/06/09 04:11:30;;;;;;;;;;;23.40;49.10;;;;;;457573;259;1233;-76
2022/06/09 04:13:31;;;;;;;;;;;23.50;48.90;;;;;;457728;259;1189;-76
2022/06/09 04:15:32;;;;;;;;;;;23.50;48.70;;;;;;457554;259;1325;-76
2022/06/09 04:17:34;;;;;;;;;;;23.50;48.80;;;;;;457739;259;1159;-76
2022/06/09 04:19:35;;;;;;;;;;;23.50;48.70;;;;;;457643;259;1128;-76
2022/06/09 04:21:37;;;;;;;;;;;23.50;48.70;;;;;;457630;259;2210;-76
2022/06/09 04:23:38;;;;;;;;;;;23.60;48.70;;;;;;457729;259;1197;-76
2022/06/09 04:25:39;;;;;;;;;;;23.60;48.40;;;;;;457665;259;1095;-76
2022/06/09 04:27:40;;;;;;;;;;;23.60;48.40;;;;;;457726;260;1155;-76
2022/06/09 04:29:42;;;;;;;;;;;23.60;48.70;;;;;;457666;259;1229;-76
2022/06/09 04:31:43;;;;;;;;;;;23.50;48.60;;;;;;457592;259;1165;-76
2022/06/09 04:33:45;;;;;;;;;;;23.60;48.40;;;;;;457618;259;1156;-75
2022/06/09 04:35:46;;;;;;;;;;;23.70;48.30;;;;;;457509;259;1188;-76
2022/06/09 04:38:03;;;;;;;;;;;23.70;48.20;;;;;;457618;259;1162;-76
2022/06/09 04:40:04;;;;;;;;;;;23.60;48.40;;;;;;457576;259;1044;-76
2022/06/09 04:42:05;;;;;;;;;;;23.70;48.40;;;;;;457599;259;2131;-76
2022/06/09 04:44:07;;;;;;;;;;;23.60;48.40;;;;;;457592;259;993;-76
2022/06/09 04:46:08;;;;;;;;;;;23.70;48.20;;;;;;457569;259;1178;-76
2022/06/09 04:48:10;;;;;;;;;;;23.80;48.00;;;;;;457559;259;1065;-76
2022/06/09 04:50:11;;;;;;;;;;;23.50;48.10;;;;;;457457;259;1082;-76
2022/06/09 04:52:13;;;;;;;;;;;22.80;49.70;;;;;;457606;259;1079;-76
2022/06/09 04:54:14;;;;;;;;;;;22.40;50.70;;;;;;457603;259;1317;-76
2022/06/09 04:56:15;;;;;;;;;;;21.90;51.40;;;;;;457518;259;1136;-76
2022/06/09 04:58:17;;;;;;;;;;;21.20;52.90;;;;;;457463;259;1104;-76
2022/06/09 05:00:18;;;;;;;;;;;21.00;54.00;;;;;;457489;259;986;-76
2022/06/09 05:02:19;;;;;;;;;;;21.50;53.10;;;;;;457598;259;2190;-76
2022/06/09 05:04:21;;;;;;;;;;;22.00;51.30;;;;;;457514;259;1259;-76
2022/06/09 05:06:22;;;;;;;;;;;22.50;50.00;;;;;;457356;259;1211;-76
2022/06/09 05:08:23;;;;;;;;;;;22.00;50.80;;;;;;457458;259;1223;-76
2022/06/09 05:10:25;;;;;;;;;;;21.40;52.40;;;;;;457726;259;1338;-76
2022/06/09 05:12:27;;;;;;;;;;;21.00;53.30;;;;;;457652;259;1143;-76
2022/06/09 05:14:27;;;;;;;;;;;20.80;54.00;;;;;;457310;260;1525;-76
2022/06/09 05:16:29;;;;;;;;;;;20.60;54.50;;;;;;457554;259;1192;-76
2022/06/09 05:18:30;;;;;;;;;;;21.20;53.30;;;;;;457541;259;1286;-76
2022/06/09 05:20:31;;;;;;;;;;;21.90;51.10;;;;;;457415;259;1306;-76
2022/06/09 05:22:33;;;;;;;;;;;22.50;49.60;;;;;;457363;259;2214;-76
2022/06/09 05:24:34;;;;;;;;;;;22.80;48.60;;;;;;457406;259;1339;-76
2022/06/09 05:26:36;;;;;;;;;;;23.00;47.90;;;;;;457458;259;1089;-76
2022/06/09 05:28:37;;;;;;;;;;;23.10;47.50;;;;;;457460;260;1067;-76
2022/06/09 05:30:38;;;;;;;;;;;23.20;47.10;;;;;;457494;259;1023;-76
2022/06/09 05:32:39;;;;;;;;;;;22.20;49.30;;;;;;457436;259;1088;-76
2022/06/09 05:34:41;;;;;;;;;;;21.60;51.30;;;;;;457433;259;1217;-76
2022/06/09 05:36:42;;;;;;;;;;;21.00;52.50;;;;;;457372;259;1147;-76
2022/06/09 05:45:41;;;;;;;;;;;22.60;48.80;;;;;;457208;260;1194;-76
2022/06/09 05:47:43;;;;;;;;;;;22.90;47.90;;;;;;457288;259;2125;-76
2022/06/09 05:49:44;;;;;;;;;;;23.20;47.30;;;;;;457138;259;1221;-76
2022/06/09 05:51:47;;;;;;;;;;;23.30;46.80;;;;;;457168;259;1116;-76
2022/06/09 05:53:47;;;;;;;;;;;23.20;46.80;;;;;;457244;259;1367;-76
2022/06/09 05:55:48;;;;;;;;;;;23.40;46.50;;;;;;457200;259;1249;-76
2022/06/09 05:57:49;;;;;;;;;;;23.50;46.20;;;;;;457318;259;1083;-76
2022/06/09 05:59:51;;;;;;;;;;;23.40;46.10;;;;;;457210;259;1045;-76
2022/06/09 06:01:52;;;;;;;;;;;23.10;46.90;;;;;;457307;259;2143;-76
2022/06/09 06:03:54;;;;;;;;;;;23.00;47.10;;;;;;457362;259;1185;-76
2022/06/09 06:08:14;;;;;;;;;;;22.90;47.20;;;;;;457181;260;1089;-76
2022/06/09 06:10:16;;;;;;;;;;;22.80;47.40;;;;;;457154;259;1252;-76
2022/06/09 06:12:17;;;;;;;;;;;22.70;47.50;;;;;;457241;259;1061;-76
2022/06/09 06:14:18;;;;;;;;;;;22.90;47.30;;;;;;457292;260;1110;-76
2022/06/09 06:16:20;;;;;;;;;;;23.00;47.00;;;;;;457214;259;1071;-76
2022/06/09 06:18:21;;;;;;;;;;;22.90;47.10;;;;;;457144;259;1067;-76
2022/06/09 06:20:22;;;;;;;;;;;22.80;47.20;;;;;;457048;259;1215;-76
2022/06/09 06:22:24;;;;;;;;;;;22.80;47.20;;;;;;457055;259;2191;-76
2022/06/09 06:24:25;;;;;;;;;;;22.80;47.40;;;;;;457001;259;1136;-76
2022/06/09 06:26:26;;;;;;;;;;;22.80;47.30;;;;;;457021;259;1227;-76
2022/06/09 06:28:28;;;;;;;;;;;22.80;47.20;;;;;;456927;259;1150;-76
2022/06/09 06:30:29;;;;;;;;;;;22.70;47.50;;;;;;457097;255;1150;-76
2022/06/09 06:32:30;;;;;;;;;;;22.70;47.40;;;;;;456964;259;1196;-76
2022/06/09 06:34:32;;;;;;;;;;;22.80;47.40;;;;;;456914;259;1211;-76
2022/06/09 06:36:33;;;;;;;;;;;22.90;47.20;;;;;;456777;260;1226;-76
2022/06/09 06:38:34;;;;;;;;;;;22.80;47.10;;;;;;456810;259;1328;-76
2022/06/09 06:40:35;;;;;;;;;;;22.90;47.10;;;;;;457104;259;1219;-76
2022/06/09 06:42:37;;;;;;;;;;;22.90;47.00;;;;;;457026;259;2190;-76
2022/06/09 06:44:38;;;;;;;;;;;22.70;47.20;;;;;;456987;259;1302;-76
2022/06/09 06:46:39;;;;;;;;;;;22.70;47.50;;;;;;456801;259;1163;-76
2022/06/09 06:48:41;;;;;;;;;;;22.60;47.40;;;;;;456973;259;1188;-76
2022/06/09 06:50:42;;;;;;;;;;;22.50;47.70;;;;;;456787;259;1088;-76
2022/06/09 06:52:43;;;;;;;;;;;22.70;47.40;;;;;;456826;259;1190;-76
2022/06/09 06:54:45;;;;;;;;;;;22.50;47.60;;;;;;456521;259;1422;-76
2022/06/09 06:56:46;;;;;;;;;;;22.40;48.00;;;;;;456715;259;1334;-76
2022/06/09 06:58:48;;;;;;;;;;;22.50;47.90;;;;;;456326;259;1103;-76
2022/06/09 07:00:49;;;;;;;;;;;22.70;47.50;;;;;;456497;259;1088;-76
2022/06/09 07:02:50;;;;;;;;;;;22.80;47.10;;;;;;456500;259;2210;-76
2022/06/09 07:04:52;;;;;;;;;;;22.80;47.30;;;;;;456622;259;1073;-76
2022/06/09 07:06:53;;;;;;;;;;;22.80;47.20;;;;;;456417;259;1072;-76
2022/06/09 07:08:54;;;;;;;;;;;22.90;47.00;;;;;;456752;259;1091;-76
2022/06/09 07:10:56;;;;;;;;;;;23.00;46.70;;;;;;456612;259;1163;-76
2022/06/09 07:12:57;;;;;;;;;;;22.90;46.80;;;;;;456464;259;1237;-76
2022/06/09 07:14:58;;;;;;;;;;;22.90;46.70;;;;;;456367;259;1237;-76
2022/06/09 07:17:00;;;;;;;;;;;22.80;46.90;;;;;;456485;259;1184;-76
2022/06/09 07:19:01;;;;;;;;;;;22.80;47.10;;;;;;456574;259;1114;-76
2022/06/09 07:21:02;;;;;;;;;;;22.80;47.00;;;;;;456745;259;1198;-76
2022/06/09 07:23:04;;;;;;;;;;;22.90;47.00;;;;;;457071;259;2210;-76
2022/06/09 07:25:05;;;;;;;;;;;22.90;47.00;;;;;;456979;259;1157;-76
2022/06/09 07:27:06;;;;;;;;;;;22.90;46.80;;;;;;457090;259;1127;-76
2022/06/09 07:29:08;;;;;;;;;;;22.80;46.80;;;;;;457088;259;993;-76
2022/06/09 07:31:09;;;;;;;;;;;22.70;47.30;;;;;;457477;259;1208;-76
2022/06/09 07:33:10;;;;;;;;;;;22.80;47.00;;;;;;456879;259;1239;-76
2022/06/09 07:35:12;;;;;;;;;;;22.70;47.10;;;;;;457290;259;1326;-76
2022/06/09 07:37:13;;;;;;;;;;;22.80;47.10;;;;;;456877;259;1284;-76
2022/06/09 07:39:14;;;;;;;;;;;22.70;47.00;;;;;;456615;259;1062;-76
2022/06/09 07:41:16;;;;;;;;;;;22.80;47.20;;;;;;456635;259;1186;-76
2022/06/09 07:43:17;;;;;;;;;;;22.80;47.10;;;;;;456335;259;2214;-76
2022/06/09 07:45:18;;;;;;;;;;;22.90;47.00;;;;;;456324;259;1098;-76
2022/06/09 07:47:20;;;;;;;;;;;22.80;46.90;;;;;;456614;259;1067;-76
2022/06/09 07:49:21;;;;;;;;;;;22.70;47.40;;;;;;456677;259;1071;-76
2022/06/09 07:51:22;;;;;;;;;;;22.60;47.60;;;;;;457406;259;1037;-76
2022/06/09 07:53:24;;;;;;;;;;;22.80;47.30;;;;;;457031;259;1066;-76
2022/06/09 07:55:25;;;;;;;;;;;22.80;47.10;;;;;;456947;259;1211;-76
2022/06/09 07:57:26;;;;;;;;;;;22.80;47.10;;;;;;457215;259;1124;-77
2022/06/09 07:59:28;;;;;;;;;;;22.90;47.00;;;;;;457131;259;1142;-76
2022/06/09 08:01:29;;;;;;;;;;;22.80;47.00;;;;;;456977;259;1299;-76
2022/06/09 08:03:30;;;;;;;;;;;22.80;47.30;;;;;;456865;259;2202;-76
2022/06/09 08:05:32;;;;;;;;;;;22.60;47.40;;;;;;456791;259;1275;-77
2022/06/09 08:07:33;;;;;;;;;;;22.60;47.50;;;;;;456827;259;1221;-76
2022/06/09 08:09:35;;;;;;;;;;;22.80;47.40;;;;;;456081;260;1088;-76
2022/06/09 08:11:37;;;;;;;;;;;22.70;47.30;;;;;;456263;259;1270;-76
2022/06/09 08:13:37;;;;;;;;;;;22.80;47.30;;;;;;456435;259;1414;-76
2022/06/09 08:15:39;;;;;;;;;;;22.60;47.50;;;;;;457044;259;1103;-76
2022/06/09 08:17:40;;;;;;;;;;;22.70;47.30;;;;;;457004;259;1044;-76
2022/06/09 08:19:42;;;;;;;;;;;22.60;47.50;;;;;;457533;259;1073;-76
2022/06/09 08:21:43;;;;;;;;;;;22.60;47.60;;;;;;457365;259;1759;-76
2022/06/09 08:23:44;;;;;;;;;;;22.50;47.70;;;;;;457303;259;2175;-76
2022/06/09 08:25:45;;;;;;;;;;;22.60;47.50;;;;;;457565;259;1049;-76
2022/06/09 08:27:47;;;;;;;;;;;22.70;47.40;;;;;;457227;259;1140;-76
2022/06/09 08:29:48;;;;;;;;;;;22.60;47.50;;;;;;456669;259;1170;-76
2022/06/09 08:31:49;;;;;;;;;;;22.60;47.50;;;;;;456666;259;1472;-76
2022/06/09 08:33:51;;;;;;;;;;;22.70;47.50;;;;;;456654;259;1024;-76
2022/06/09 08:35:52;;;;;;;;;;;22.70;47.30;;;;;;456245;259;1089;-76
2022/06/09 08:37:53;;;;;;;;;;;22.60;47.40;;;;;;457015;259;1054;-76
2022/06/09 08:39:55;;;;;;;;;;;22.70;47.30;;;;;;456261;259;1099;-77
2022/06/09 08:41:56;;;;;;;;;;;22.70;47.20;;;;;;456929;259;1134;-76
2022/06/09 08:43:57;;;;;;;;;;;22.60;47.20;;;;;;456806;259;2214;-76
2022/06/09 08:45:59;;;;;;;;;;;22.70;47.40;;;;;;456554;259;1132;-76
2022/06/09 08:48:00;;;;;;;;;;;22.90;47.00;;;;;;456501;259;1742;-76
2022/06/09 08:50:01;;;;;;;;;;;23.00;46.70;;;;;;456433;259;1161;-76
2022/06/09 08:52:03;;;;;;;;;;;23.00;46.70;;;;;;456244;259;1219;-76
2022/06/09 08:54:05;;;;;;;;;;;22.90;46.80;;;;;;456259;259;1182;-76
2022/06/09 08:56:06;;;;;;;;;;;23.00;46.80;;;;;;455968;259;1228;-75
2022/06/09 08:58:07;;;;;;;;;;;23.10;46.60;;;;;;456276;259;1244;-75
2022/06/09 09:00:09;;;;;;;;;;;23.10;46.40;;;;;;456404;259;1293;-76
2022/06/09 09:02:10;;;;;;;;;;;23.10;46.50;;;;;;456200;259;1255;-76
2022/06/09 09:04:11;;;;;;;;;;;22.90;46.70;;;;;;455971;259;2234;-76
2022/06/09 09:06:13;;;;;;;;;;;22.90;46.80;;;;;;456316;259;1217;-75
2022/06/09 09:08:14;;;;;;;;;;;22.80;47.10;;;;;;456196;259;1155;-75
2022/06/09 09:10:16;;;;;;;;;;;22.90;47.00;;;;;;456471;259;1159;-76
2022/06/09 09:12:17;;;;;;;;;;;23.00;46.90;;;;;;456499;259;1185;-75
2022/06/09 09:14:18;;;;;;;;;;;23.00;46.90;;;;;;456894;259;1184;-75
2022/06/09 09:16:20;;;;;;;;;;;23.00;46.90;;;;;;456711;259;1241;-76
2022/06/09 09:18:21;;;;;;;;;;;23.00;47.00;;;;;;456802;259;1047;-76
2022/06/09 09:20:23;;;;;;;;;;;22.90;47.10;;;;;;456870;259;1207;-75
2022/06/09 09:22:24;;;;;;;;;;;22.90;47.10;;;;;;457216;259;1233;-76
2022/06/09 09:24:26;;;;;;;;;;;22.90;47.30;;;;;;456963;256;2210;-76
2022/06/09 09:26:27;;;;;;;;;;;22.90;47.30;;;;;;456948;259;1354;-76
2022/06/09 09:28:30;;;;;;;;;;;23.00;47.20;;;;;;456602;259;1211;-76
2022/06/09 09:30:30;;;;;;;;;;;23.00;47.20;;;;;;456807;259;1516;-76
2022/06/09 09:32:31;;;;;;;;;;;22.90;47.30;;;;;;456955;259;1160;-76
2022/06/09 09:34:34;;;;;;;;;;;22.90;47.30;;;;;;456824;259;1055;-76
2022/06/09 09:36:35;;;;;;;;;;;22.90;47.50;;;;;;457211;260;1456;-76
2022/06/09 09:38:37;;;;;;;;;;;22.90;47.40;;;;;;456810;259;1083;-75
2022/06/09 09:40:39;;;;;;;;;;;23.00;47.30;;;;;;456956;259;1082;-76
2022/06/09 09:42:42;;;;;;;;;;;22.90;47.20;;;;;;456474;259;1291;-75
2022/06/09 09:44:41;;;;;;;;;;;22.90;47.20;;;;;;456267;259;1561;-75
2022/06/09 09:46:42;;;;;;;;;;;22.90;47.10;;;;;;456266;259;1082;-75
2022/06/09 09:48:43;;;;;;;;;;;22.90;47.20;;;;;;456388;259;1152;-75
2022/06/09 09:50:45;;;;;;;;;;;23.00;47.20;;;;;;456546;259;1236;-76
2022/06/09 09:52:46;;;;;;;;;;;22.80;47.40;;;;;;456609;259;1090;-75
2022/06/09 09:54:47;;;;;;;;;;;22.90;47.50;;;;;;456627;259;1212;-76
2022/06/09 09:56:49;;;;;;;;;;;22.90;47.40;;;;;;456518;259;1080;-76
2022/06/09 09:58:50;;;;;;;;;;;23.00;47.30;;;;;;456978;259;1298;-76
2022/06/09 10:00:51;;;;;;;;;;;22.90;47.20;;;;;;456879;259;1788;-75
2022/06/09 10:09:50;;;;;;;;;;;23.00;47.10;;;;;;457069;260;1105;-76
2022/06/09 10:11:54;;;;;;;;;;;23.00;47.10;;;;;;456992;260;1040;-76
2022/06/09 10:13:56;;;;;;;;;;;22.90;47.30;;;;;;457130;256;1177;-75
2022/06/09 10:15:57;;;;;;;;;;;22.90;47.20;;;;;;456885;259;1231;-76
2022/06/09 10:17:58;;;;;;;;;;;22.80;47.40;;;;;;456914;259;1086;-76
2022/06/09 10:20:00;;;;;;;;;;;22.90;47.50;;;;;;456908;255;1338;-76
2022/06/09 10:22:01;;;;;;;;;;;22.90;47.30;;;;;;456960;259;1378;-76
2022/06/09 10:24:02;;;;;;;;;;;22.80;47.30;;;;;;457008;259;2135;-75
2022/06/09 10:26:03;;;;;;;;;;;22.90;47.40;;;;;;457101;259;1176;-76
2022/06/09 10:28:05;;;;;;;;;;;23.00;47.30;;;;;;457266;259;1304;-76
2022/06/09 10:30:06;;;;;;;;;;;23.00;47.10;;;;;;456921;259;1083;-75
2022/06/09 10:32:08;;;;;;;;;;;23.10;46.90;;;;;;456908;259;1124;-76
2022/06/09 10:34:09;;;;;;;;;;;23.00;47.10;;;;;;457161;259;1204;-75
2022/06/09 10:36:10;;;;;;;;;;;23.00;47.00;;;;;;457149;259;1193;-76
2022/06/09 10:38:11;;;;;;;;;;;23.00;47.00;;;;;;457012;259;1260;-76
2022/06/09 10:40:13;;;;;;;;;;;23.00;47.00;;;;;;457234;259;1309;-76
2022/06/09 10:42:14;;;;;;;;;;;23.10;46.90;;;;;;456946;259;1118;-76
2022/06/09 10:44:15;;;;;;;;;;;23.00;47.10;;;;;;456919;259;2127;-76
2022/06/09 10:46:17;;;;;;;;;;;23.10;46.90;;;;;;456997;259;1118;-76
2022/06/09 10:55:27;;;;;;;;;;;23.00;47.10;;;;;;456782;260;1062;-76
2022/06/09 10:57:28;;;;;;;;;;;23.10;46.90;;;;;;456993;259;1148;-75
2022/06/09 10:59:29;;;;;;;;;;;23.00;46.90;;;;;;457019;259;1295;-76
2022/06/09 11:01:30;;;;;;;;;;;23.00;46.90;;;;;;456700;259;1168;-76
2022/06/09 11:03:32;;;;;;;;;;;22.90;47.10;;;;;;456832;259;2222;-75
2022/06/09 11:05:33;;;;;;;;;;;22.90;47.10;;;;;;456658;259;1136;-76
2022/06/09 11:07:34;;;;;;;;;;;23.00;47.00;;;;;;456608;259;1252;-76
2022/06/09 11:09:36;;;;;;;;;;;23.00;47.00;;;;;;456871;259;1121;-76
2022/06/09 11:11:37;;;;;;;;;;;23.00;46.90;;;;;;456885;259;1213;-75
2022/06/09 11:13:38;;;;;;;;;;;23.00;47.10;;;;;;456994;259;1187;-76
2022/06/09 11:15:40;;;;;;;;;;;23.00;47.20;;;;;;456994;259;1203;-76
2022/06/09 11:17:41;;;;;;;;;;;23.00;46.90;;;;;;456996;259;1270;-76
2022/06/09 11:19:44;;;;;;;;;;;23.00;46.90;;;;;;456970;259;1146;-75
2022/06/09 11:21:44;;;;;;;;;;;22.90;47.20;;;;;;456819;259;1421;-76
2022/06/09 11:23:45;;;;;;;;;;;22.80;47.20;;;;;;456993;259;2198;-76
2022/06/09 11:25:47;;;;;;;;;;;22.90;47.20;;;;;;456996;259;1086;-76
2022/06/09 11:27:48;;;;;;;;;;;22.70;47.30;;;;;;456948;259;1583;-76
2022/06/09 11:29:49;;;;;;;;;;;22.80;47.40;;;;;;456898;259;1257;-75
2022/06/09 11:31:52;;;;;;;;;;;22.70;47.50;;;;;;456849;259;1077;-76
2022/06/09 11:33:52;;;;;;;;;;;22.70;47.50;;;;;;457110;259;1403;-75
2022/06/09 11:35:53;;;;;;;;;;;22.70;47.50;;;;;;456848;259;1110;-76
2022/06/09 11:37:55;;;;;;;;;;;22.60;47.60;;;;;;456955;259;1129;-75
2022/06/09 11:39:57;;;;;;;;;;;22.70;47.50;;;;;;457025;259;1132;-76
2022/06/09 11:41:57;;;;;;;;;;;22.60;47.60;;;;;;457022;259;1412;-76
2022/06/09 11:43:59;;;;;;;;;;;22.60;47.50;;;;;;457169;259;2210;-75
2022/06/09 11:46:00;;;;;;;;;;;22.60;47.50;;;;;;456918;259;1598;-75
2022/06/09 11:48:01;;;;;;;;;;;22.60;47.40;;;;;;457173;259;1195;-76
2022/06/09 11:50:03;;;;;;;;;;;22.60;47.50;;;;;;457039;259;1097;-76
2022/06/09 11:52:04;;;;;;;;;;;22.60;47.60;;;;;;457107;259;1377;-76
2022/06/09 11:54:05;;;;;;;;;;;22.50;47.60;;;;;;457242;259;1150;-76
2022/06/09 11:56:08;;;;;;;;;;;22.50;47.60;;;;;;457607;259;1356;-76
2022/06/09 11:58:08;;;;;;;;;;;22.60;47.60;;;;;;457303;259;1334;-75
2022/06/09 12:00:09;;;;;;;;;;;22.50;47.70;;;;;;456933;259;1217;-76
2022/06/09 12:02:11;;;;;;;;;;;22.40;47.80;;;;;;457444;259;1772;-76
2022/06/09 12:04:12;;;;;;;;;;;22.50;47.70;;;;;;456368;259;2147;-76
2022/06/09 12:06:14;;;;;;;;;;;22.50;47.70;;;;;;456144;259;1231;-75
2022/06/09 12:08:15;;;;;;;;;;;22.50;47.60;;;;;;456120;259;1282;-76
2022/06/09 12:10:16;;;;;;;;;;;22.50;47.60;;;;;;456326;259;1090;-76
2022/06/09 12:12:18;;;;;;;;;;;22.50;47.60;;;;;;456691;259;1206;-76
2022/06/09 12:14:19;;;;;;;;;;;22.50;47.70;;;;;;456881;259;1098;-75
2022/06/09 12:16:20;;;;;;;;;;;22.60;47.50;;;;;;457065;259;1177;-76
2022/06/09 12:18:23;;;;;;;;;;;22.50;47.70;;;;;;456919;259;1126;-76
2022/06/09 12:20:23;;;;;;;;;;;22.50;47.70;;;;;;456692;259;1324;-75